createdAt,value
2023-05-07T00:09:53.133Z,73.15
2023-05-07T00:19:53.124Z,73.18
2023-05-07T00:29:53.173Z,73.29
2023-05-07T00:39:53.117Z,73.45
2023-05-07T00:49:53.224Z,73.63
2023-05-07T00:59:53.264Z,73.73
2023-05-07T01:09:53.260Z,73.77
2023-05-07T01:19:54.104Z,73.74
2023-05-07T01:29:54.820Z,73.67
2023-05-07T01:39:55.353Z,73.69
2023-05-07T01:49:55.383Z,73.72
2023-05-07T01:59:55.491Z,73.81
2023-05-07T02:09:56.715Z,73.71
2023-05-07T02:19:57.558Z,73.78
2023-05-07T02:29:57.617Z,73.82
2023-05-07T02:39:57.492Z,73.94
2023-05-07T02:49:57.453Z,74.17
2023-05-07T02:59:57.546Z,74.35
2023-05-07T03:09:57.584Z,74.63
2023-05-07T03:19:57.772Z,74.83
2023-05-07T03:29:58.435Z,75.16
2023-05-07T03:39:58.622Z,75.38
2023-05-07T03:49:58.680Z,75.63
2023-05-07T03:59:58.666Z,75.75
2023-05-07T04:09:58.609Z,75.83
2023-05-07T04:19:59.827Z,75.74
2023-05-07T04:30:01.927Z,75.62
2023-05-07T04:40:04.294Z,75.23
2023-05-07T04:50:04.686Z,74.77
2023-05-07T05:00:06.444Z,74.53
2023-05-07T05:10:07.649Z,74.27
2023-05-07T05:20:08.612Z,73.29
2023-05-07T05:30:09.307Z,72.52
2023-05-07T05:40:10.514Z,71.65
2023-05-07T05:50:11.015Z,70.55
2023-05-07T06:00:13.776Z,69.83
2023-05-07T06:10:14.977Z,69.18
2023-05-07T06:20:15.821Z,67.87
2023-05-07T06:30:15.837Z,67.03
2023-05-07T06:40:16.433Z,66.07
2023-05-07T06:50:18.255Z,64.30
2023-05-07T07:00:20.534Z,61.88
2023-05-07T07:10:21.583Z,57.77
2023-05-07T07:20:21.934Z,53.13
2023-05-07T07:30:22.784Z,50.89
2023-05-07T07:40:23.218Z,46.43
2023-05-07T07:50:36.078Z,44.84
2023-05-07T08:00:27.135Z,42.24
2023-05-07T08:10:29.664Z,39.92
2023-05-07T08:20:31.149Z,38.99
2023-05-07T08:30:31.901Z,35.64
2023-05-07T08:40:32.108Z,33.86
2023-05-07T08:50:32.485Z,31.03
2023-05-07T09:00:33.289Z,26.75
2023-05-07T09:10:34.693Z,24.83
2023-05-07T09:20:35.490Z,26.27
2023-05-07T09:30:36.979Z,29.18
2023-05-07T09:40:38.778Z,27.42
2023-05-07T09:50:39.102Z,23.01
2023-05-07T10:00:40.876Z,25.64
2023-05-07T10:10:55.765Z,22.37
2023-05-07T10:20:56.932Z,21.67
2023-05-07T10:30:57.927Z,22.95
2023-05-07T10:40:58.276Z,27.04
2023-05-07T10:50:58.192Z,27.39
2023-05-07T11:00:59.992Z,28.18
2023-05-07T11:11:02.386Z,28.67
2023-05-07T11:21:06.899Z,29.66
2023-05-07T11:31:07.362Z,30.58
2023-05-07T11:41:07.143Z,31.55
2023-05-07T11:51:07.226Z,32.98
2023-05-07T12:01:07.159Z,34.19
2023-05-07T12:11:07.137Z,34.97
2023-05-07T12:21:07.670Z,35.05
2023-05-07T12:31:08.523Z,35.46
2023-05-07T12:41:09.172Z,38.07
2023-05-07T12:51:11.216Z,39.28
2023-05-07T13:01:13.177Z,40.83
2023-05-07T13:11:13.282Z,41.26
2023-05-07T13:21:14.324Z,41.59
2023-05-07T13:31:14.346Z,42.28
2023-05-07T13:41:14.913Z,45.24
2023-05-07T13:51:15.903Z,47.29
2023-05-07T14:01:16.422Z,49.03
2023-05-07T14:11:16.649Z,54.66
2023-05-07T14:21:16.439Z,59.72
2023-05-07T14:31:19.524Z,61.66
2023-05-07T14:41:19.752Z,63.41
2023-05-07T14:51:20.427Z,64.85
2023-05-07T15:01:20.551Z,69.91
2023-05-07T15:11:20.481Z,70.95
2023-05-07T15:21:20.463Z,73.05
2023-05-07T15:31:21.244Z,75.29
2023-05-07T15:41:21.552Z,76.31
2023-05-07T15:51:21.694Z,76.93
2023-05-07T16:01:22.105Z,77.24
2023-05-07T16:11:23.509Z,77.36
2023-05-07T16:21:23.560Z,76.95
2023-05-07T16:31:23.821Z,75.83
2023-05-07T16:41:26.545Z,75.51
2023-05-07T16:51:27.531Z,75.05
2023-05-07T17:01:29.515Z,74.75
2023-05-07T17:11:31.201Z,74.98
2023-05-07T17:21:31.809Z,75.23
2023-05-07T17:31:31.618Z,75.49
2023-05-07T17:41:31.591Z,75.86
2023-05-07T17:51:36.267Z,76.30
2023-05-07T18:01:34.008Z,76.63
2023-05-07T18:11:34.673Z,76.88
2023-05-07T18:21:34.681Z,77.12
2023-05-07T18:31:37.462Z,77.43
2023-05-07T18:41:36.742Z,77.68
2023-05-07T18:51:36.898Z,77.89
2023-05-07T19:01:36.828Z,78.09
2023-05-07T19:11:39.190Z,78.36
2023-05-07T19:21:39.766Z,78.53
2023-05-07T19:31:39.885Z,78.69
2023-05-07T19:41:41.309Z,78.80
2023-05-07T19:51:44.837Z,79.00
2023-05-07T20:01:45.020Z,79.66
2023-05-07T20:11:45.135Z,80.01
2023-05-07T20:21:44.942Z,80.02
2023-05-07T20:31:45.103Z,79.96
2023-05-07T20:41:44.865Z,80.01
2023-05-07T20:51:45.090Z,80.33
2023-05-07T21:01:45.169Z,80.90
2023-05-07T21:11:45.942Z,81.24
2023-05-07T21:21:45.910Z,81.52
2023-05-07T21:31:45.941Z,81.83
2023-05-07T21:41:45.988Z,82.01
2023-05-07T21:51:45.940Z,82.14
2023-05-07T22:01:46.064Z,82.28
2023-05-07T22:11:45.985Z,82.36
2023-05-07T22:21:46.032Z,82.44
2023-05-07T22:31:46.073Z,82.57
2023-05-07T22:41:46.415Z,82.69
2023-05-07T22:51:47.078Z,82.85
2023-05-07T23:01:48.154Z,82.99
2023-05-07T23:11:48.069Z,83.05
2023-05-07T23:21:48.680Z,83.14
2023-05-07T23:31:49.179Z,83.21
2023-05-07T23:41:49.106Z,83.38
2023-05-07T23:51:49.175Z,83.45
